createdAt,value
2024-04-18T00:01:37.118Z,3.28
2024-04-18T00:04:04.467Z,2.81
2024-04-18T00:06:33.566Z,3.01
2024-04-18T00:09:03.164Z,3.21
2024-04-18T00:11:32.488Z,2.56
2024-04-18T00:13:59.635Z,2.50
2024-04-18T00:16:37.992Z,2.98
2024-04-18T00:19:22.324Z,2.93
2024-04-18T00:22:04.320Z,3.06
2024-04-18T00:24:31.683Z,2.75
2024-04-18T00:27:01.023Z,3.45
2024-04-18T00:29:41.124Z,2.88
2024-04-18T00:32:11.429Z,2.91
2024-04-18T00:34:40.888Z,2.91
2024-04-18T00:37:30.255Z,3.29
2024-04-18T00:40:04.690Z,4.25
2024-04-18T00:42:39.246Z,4.29
2024-04-18T00:45:07.139Z,5.42
2024-04-18T00:47:51.414Z,4.30
2024-04-18T00:50:20.436Z,4.05
2024-04-18T00:52:47.697Z,4.88
2024-04-18T00:55:32.672Z,4.13
2024-04-18T00:58:12.001Z,5.02
2024-04-18T01:00:43.424Z,4.18
2024-04-18T01:03:32.110Z,5.34
2024-04-18T01:06:08.868Z,5.19
2024-04-18T01:08:59.907Z,5.31
2024-04-18T01:11:31.304Z,5.77
2024-04-18T01:14:00.383Z,6.34
2024-04-18T01:16:34.486Z,5.64
2024-04-18T01:19:06.508Z,5.95
2024-04-18T01:21:33.823Z,5.56
2024-04-18T01:24:03.391Z,5.23
2024-04-18T01:26:30.562Z,5.57
2024-04-18T01:28:57.706Z,4.99
2024-04-18T01:31:50.557Z,4.59
2024-04-18T01:34:22.133Z,5.49
2024-04-18T01:37:09.589Z,4.97
2024-04-18T01:39:39.316Z,4.91
2024-04-18T01:42:09.357Z,5.39
2024-04-18T01:44:42.972Z,4.99
2024-04-18T01:47:31.303Z,4.79
2024-04-18T01:50:08.002Z,5.03
2024-04-18T01:52:35.259Z,4.77
2024-04-18T01:55:12.785Z,4.08
2024-04-18T01:57:42.396Z,3.66
2024-04-18T02:00:30.574Z,3.25
2024-04-18T02:03:03.118Z,3.11
2024-04-18T02:05:52.671Z,3.01
2024-04-18T02:08:42.289Z,2.63
2024-04-18T02:11:18.033Z,2.41
2024-04-18T02:14:05.257Z,2.45
2024-04-18T02:16:35.388Z,2.64
2024-04-18T02:19:21.128Z,2.58
2024-04-18T02:22:13.344Z,2.95
2024-04-18T02:25:00.521Z,2.39
2024-04-18T02:27:29.821Z,2.49
2024-04-18T02:30:17.106Z,2.39
2024-04-18T02:32:48.742Z,2.53
2024-04-18T02:35:15.937Z,2.87
2024-04-18T02:38:01.158Z,2.19
2024-04-18T02:40:31.316Z,2.35
2024-04-18T02:43:02.523Z,2.25
2024-04-18T02:45:34.885Z,2.05
2024-04-18T02:48:23.070Z,1.97
2024-04-18T02:50:50.303Z,2.42
2024-04-18T02:53:19.670Z,2.25
2024-04-18T02:56:08.313Z,2.47
2024-04-18T02:58:37.581Z,2.59
2024-04-18T03:01:16.685Z,2.26
2024-04-18T03:03:48.624Z,2.75
2024-04-18T03:06:15.933Z,2.45
2024-04-18T03:08:46.763Z,2.27
2024-04-18T03:11:23.811Z,2.39
2024-04-18T03:14:09.344Z,2.17
2024-04-18T03:16:38.939Z,2.89
2024-04-18T03:19:20.599Z,2.77
2024-04-18T03:21:56.191Z,2.31
2024-04-18T03:24:24.410Z,2.66
2024-04-18T03:26:56.486Z,2.42
2024-04-18T03:29:28.813Z,2.49
2024-04-18T03:32:03.994Z,2.71
2024-04-18T03:34:46.453Z,2.66
2024-04-18T03:37:15.875Z,2.76
2024-04-18T03:39:45.242Z,2.97
2024-04-18T03:42:14.890Z,2.73
2024-04-18T03:44:55.087Z,2.80
2024-04-18T03:47:22.398Z,2.87
2024-04-18T03:50:09.032Z,2.94
2024-04-18T03:52:41.581Z,3.23
2024-04-18T03:55:39.379Z,2.77
2024-04-18T03:58:06.583Z,2.83
2024-04-18T04:00:53.807Z,3.16
2024-04-18T04:03:23.406Z,3.18
2024-04-18T04:05:52.898Z,3.55
2024-04-18T04:08:24.338Z,3.34
2024-04-18T04:11:10.341Z,3.06
2024-04-18T04:13:37.570Z,3.46
2024-04-18T04:16:17.055Z,3.18
2024-04-18T04:18:51.851Z,3.30
2024-04-18T04:21:38.087Z,3.42
2024-04-18T04:24:10.338Z,4.10
2024-04-18T04:26:50.309Z,3.50
2024-04-18T04:29:19.644Z,3.93
2024-04-18T04:31:49.276Z,3.75
2024-04-18T04:34:22.145Z,3.35
2024-04-18T04:36:51.457Z,3.65
2024-04-18T04:39:21.421Z,3.71
2024-04-18T04:41:53.327Z,4.28
2024-04-18T04:44:23.447Z,4.41
2024-04-18T04:46:54.904Z,4.75
2024-04-18T04:49:24.746Z,4.80
2024-04-18T04:52:06.975Z,5.08
2024-04-18T04:54:48.684Z,6.45
2024-04-18T04:57:18.167Z,7.35
2024-04-18T05:00:08.254Z,5.71
2024-04-18T05:02:55.381Z,6.03
2024-04-18T05:05:27.973Z,8.07
2024-04-18T05:08:04.142Z,6.52
2024-04-18T05:10:45.074Z,6.03
2024-04-18T05:13:12.646Z,6.33
2024-04-18T05:15:45.382Z,5.98
2024-04-18T05:18:29.835Z,6.03
2024-04-18T05:20:59.260Z,5.43
2024-04-18T05:23:26.640Z,4.92
2024-04-18T05:25:53.847Z,4.65
2024-04-18T05:28:31.913Z,3.87
2024-04-18T05:31:03.342Z,3.36
2024-04-18T05:33:33.813Z,3.35
2024-04-18T05:36:04.584Z,4.33
2024-04-18T05:38:34.328Z,3.87
2024-04-18T05:41:06.036Z,3.31
2024-04-18T05:43:51.686Z,3.69
2024-04-18T05:46:21.056Z,3.79
2024-04-18T05:48:53.100Z,4.32
2024-04-18T05:51:22.866Z,4.17
2024-04-18T05:54:10.008Z,4.99
2024-04-18T05:56:59.479Z,4.13
2024-04-18T05:59:46.616Z,3.50
2024-04-18T06:02:16.021Z,2.82
2024-04-18T06:04:43.274Z,2.94
2024-04-18T06:07:29.426Z,2.92
2024-04-18T06:09:56.647Z,2.69
2024-04-18T06:12:23.916Z,2.47
2024-04-18T06:14:55.358Z,2.33
2024-04-18T06:17:24.864Z,3.06
2024-04-18T06:19:54.943Z,2.83
2024-04-18T06:22:33.616Z,2.71
2024-04-18T06:25:19.475Z,2.74
2024-04-18T06:27:50.886Z,2.93
2024-04-18T06:30:20.794Z,2.57
2024-04-18T06:32:53.304Z,2.03
2024-04-18T06:35:20.488Z,3.10
2024-04-18T06:37:49.136Z,2.55
2024-04-18T06:40:22.215Z,2.27
2024-04-18T06:42:53.147Z,2.57
2024-04-18T06:45:23.327Z,2.44
2024-04-18T06:47:53.809Z,2.35
2024-04-18T06:50:24.226Z,2.67
2024-04-18T06:52:55.952Z,2.56
2024-04-18T06:55:25.199Z,2.29
2024-04-18T06:57:52.461Z,2.57
2024-04-18T07:00:21.898Z,2.63
2024-04-18T07:02:49.089Z,1.69
2024-04-18T07:05:35.277Z,2.57
2024-04-18T07:08:23.427Z,2.05
2024-04-18T07:10:53.271Z,1.84
2024-04-18T07:13:35.224Z,2.21
2024-04-18T07:16:26.262Z,2.01
2024-04-18T07:18:58.726Z,1.97
2024-04-18T07:21:28.069Z,2.09
2024-04-18T07:24:19.163Z,1.40
2024-04-18T07:26:47.834Z,1.24
2024-04-18T07:29:15.024Z,1.25
2024-04-18T07:31:44.623Z,2.23
2024-04-18T07:34:17.838Z,2.16
2024-04-18T07:36:50.079Z,1.99
2024-04-18T07:39:17.520Z,1.88
2024-04-18T07:41:51.412Z,1.75
2024-04-18T07:44:20.678Z,2.05
2024-04-18T07:46:56.275Z,1.43
2024-04-18T07:49:25.753Z,1.63
2024-04-18T07:51:57.477Z,1.50
2024-04-18T07:54:25.240Z,1.41
2024-04-18T07:56:52.772Z,1.13
2024-04-18T07:59:20.636Z,1.18
2024-04-18T08:01:53.877Z,1.55
2024-04-18T08:04:44.583Z,1.50
2024-04-18T08:07:11.748Z,1.56
2024-04-18T08:09:46.402Z,1.56
2024-04-18T08:12:24.406Z,1.19
2024-04-18T08:15:04.388Z,1.05
2024-04-18T08:17:39.844Z,1.23
2024-04-18T08:20:11.689Z,1.29
2024-04-18T08:22:38.919Z,0.98
2024-04-18T08:25:08.848Z,1.25
2024-04-18T08:27:38.327Z,0.99
2024-04-18T08:30:05.840Z,0.95
2024-04-18T08:32:33.102Z,1.19
2024-04-18T08:35:00.340Z,1.13
2024-04-18T08:37:29.919Z,1.21
2024-04-18T08:39:57.056Z,1.07
2024-04-18T08:42:27.599Z,1.37
2024-04-18T08:44:58.354Z,1.17
2024-04-18T08:47:29.604Z,1.32
2024-04-18T08:49:57.429Z,1.34
2024-04-18T08:52:28.341Z,1.12
2024-04-18T08:54:56.258Z,1.16
2024-04-18T08:57:28.935Z,1.20
2024-04-18T08:59:59.733Z,0.71
2024-04-18T09:02:29.488Z,1.27
2024-04-18T09:04:59.998Z,1.83
2024-04-18T09:07:27.156Z,1.07
2024-04-18T09:10:03.094Z,1.50
2024-04-18T09:12:32.829Z,1.23
2024-04-18T09:15:02.517Z,0.80
2024-04-18T09:17:32.258Z,0.88
2024-04-18T09:20:04.886Z,0.90
2024-04-18T09:22:32.119Z,0.75
2024-04-18T09:24:59.471Z,1.03
2024-04-18T09:27:26.640Z,1.95
2024-04-18T09:29:56.137Z,1.29
2024-04-18T09:32:24.145Z,1.17
2024-04-18T09:34:52.015Z,1.01
2024-04-18T09:37:19.422Z,0.87
2024-04-18T09:39:52.382Z,0.89
2024-04-18T09:42:38.074Z,0.86
2024-04-18T09:45:14.035Z,0.65
2024-04-18T09:47:42.280Z,0.91
2024-04-18T09:50:13.696Z,0.97
2024-04-18T09:52:43.892Z,0.81
2024-04-18T09:55:14.934Z,0.97
2024-04-18T09:57:46.945Z,0.85
2024-04-18T10:00:16.030Z,1.07
2024-04-18T10:02:47.657Z,0.70
2024-04-18T10:05:15.364Z,1.09
2024-04-18T10:07:44.390Z,0.80
2024-04-18T10:10:16.428Z,1.23
2024-04-18T10:12:43.742Z,1.07
2024-04-18T10:15:18.907Z,0.98
2024-04-18T10:17:51.277Z,1.02
2024-04-18T10:20:27.446Z,0.97
2024-04-18T10:23:01.468Z,0.96
2024-04-18T10:25:38.591Z,1.01
2024-04-18T10:28:17.983Z,0.81
2024-04-18T10:30:45.190Z,0.97
2024-04-18T10:33:12.448Z,1.11
2024-04-18T10:35:40.504Z,0.87
2024-04-18T10:38:07.629Z,0.88
2024-04-18T10:40:57.246Z,0.98
2024-04-18T10:43:28.203Z,1.14
2024-04-18T10:46:01.641Z,0.90
2024-04-18T10:48:29.051Z,1.02
2024-04-18T10:50:56.458Z,0.87
2024-04-18T10:53:28.437Z,0.79
2024-04-18T10:56:00.244Z,1.15
2024-04-18T10:58:27.910Z,1.39
2024-04-18T11:01:00.879Z,1.03
2024-04-18T11:03:28.738Z,0.90
2024-04-18T11:06:02.342Z,0.84
2024-04-18T11:08:35.001Z,0.96
2024-04-18T11:11:04.387Z,1.99
2024-04-18T11:13:34.172Z,1.07
2024-04-18T11:16:01.347Z,0.98
2024-04-18T11:18:31.941Z,1.17
2024-04-18T11:20:59.250Z,0.89
2024-04-18T11:23:35.831Z,0.89
2024-04-18T11:26:16.396Z,1.33
2024-04-18T11:28:43.636Z,1.24
2024-04-18T11:31:10.813Z,1.23
2024-04-18T11:33:41.831Z,1.22
2024-04-18T11:36:11.644Z,1.34
2024-04-18T11:38:43.399Z,1.05
2024-04-18T11:41:12.968Z,1.02
2024-04-18T11:43:43.002Z,0.95
2024-04-18T11:46:11.068Z,1.02
2024-04-18T11:48:45.448Z,1.12
2024-04-18T11:51:17.178Z,1.33
2024-04-18T11:53:49.262Z,0.92
2024-04-18T11:56:34.556Z,1.10
2024-04-18T11:59:04.835Z,1.05
2024-04-18T12:01:34.241Z,1.20
2024-04-18T12:04:22.248Z,1.01
2024-04-18T12:06:52.313Z,1.13
2024-04-18T12:09:32.267Z,1.01
2024-04-18T12:12:03.990Z,1.05
2024-04-18T12:14:56.002Z,1.33
2024-04-18T12:17:31.589Z,1.02
2024-04-18T12:20:22.120Z,0.89
2024-04-18T12:22:51.708Z,0.79
2024-04-18T12:25:19.354Z,0.90
2024-04-18T12:27:49.175Z,0.95
2024-04-18T12:30:36.924Z,1.07
2024-04-18T12:33:20.128Z,0.88
2024-04-18T12:35:52.710Z,0.84
2024-04-18T12:38:22.537Z,0.91
2024-04-18T12:40:59.661Z,1.23
2024-04-18T12:43:27.642Z,0.99
2024-04-18T12:46:10.078Z,0.77
2024-04-18T12:48:57.474Z,1.32
2024-04-18T12:51:27.676Z,0.78
2024-04-18T12:53:57.216Z,0.82
2024-04-18T12:56:48.782Z,1.03
2024-04-18T12:59:22.392Z,0.88
2024-04-18T13:01:49.639Z,0.89
2024-04-18T13:04:20.151Z,1.35
2024-04-18T13:06:47.453Z,0.86
2024-04-18T13:09:33.558Z,1.05
2024-04-18T13:12:04.441Z,0.88
2024-04-18T13:14:55.414Z,1.21
2024-04-18T13:17:25.111Z,1.11
2024-04-18T13:19:55.115Z,0.89
2024-04-18T13:22:24.511Z,1.32
2024-04-18T13:24:54.196Z,0.98
2024-04-18T13:27:28.598Z,1.26
2024-04-18T13:30:00.630Z,1.35
2024-04-18T13:32:35.056Z,1.03
2024-04-18T13:35:04.866Z,1.25
2024-04-18T13:37:37.647Z,1.15
2024-04-18T13:40:19.088Z,1.50
2024-04-18T13:43:01.038Z,2.35
2024-04-18T13:45:33.855Z,1.12
2024-04-18T13:48:07.258Z,1.12
2024-04-18T13:50:49.586Z,1.48
2024-04-18T13:53:19.199Z,1.56
2024-04-18T13:55:52.439Z,1.41
2024-04-18T13:58:21.486Z,1.71
2024-04-18T14:01:01.833Z,1.55
2024-04-18T14:03:29.812Z,1.51
2024-04-18T14:06:08.844Z,1.43
2024-04-18T14:08:36.646Z,1.43
2024-04-18T14:11:28.292Z,1.45
2024-04-18T14:14:09.183Z,1.51
2024-04-18T14:17:15.461Z,1.24
2024-04-18T14:20:02.258Z,1.20
2024-04-18T14:22:33.920Z,1.19
2024-04-18T14:25:03.360Z,1.43
2024-04-18T14:27:35.481Z,1.51
2024-04-18T14:30:03.147Z,1.23
2024-04-18T14:32:38.685Z,1.61
2024-04-18T14:35:08.937Z,1.45
2024-04-18T14:37:41.072Z,1.66
2024-04-18T14:40:10.902Z,1.84
2024-04-18T14:42:40.594Z,1.61
2024-04-18T14:45:12.073Z,1.64
2024-04-18T14:47:42.258Z,1.48
2024-04-18T14:50:11.858Z,1.49
2024-04-18T14:52:39.105Z,1.99
2024-04-18T14:55:34.070Z,1.84
2024-04-18T14:58:20.951Z,1.97
2024-04-18T15:00:52.241Z,1.79
2024-04-18T15:03:22.645Z,1.71
2024-04-18T15:06:13.672Z,1.39
2024-04-18T15:08:42.110Z,1.53
2024-04-18T15:11:28.236Z,1.71
2024-04-18T15:14:05.909Z,1.43
2024-04-18T15:16:35.375Z,1.37
2024-04-18T15:19:02.650Z,1.67
2024-04-18T15:21:52.237Z,1.40
2024-04-18T15:24:26.384Z,1.15
2024-04-18T15:27:04.452Z,1.01
2024-04-18T15:29:34.717Z,0.96
2024-04-18T15:32:21.626Z,1.26
2024-04-18T15:34:51.731Z,0.97
2024-04-18T15:37:46.821Z,1.41
2024-04-18T15:40:31.898Z,1.42
2024-04-18T15:43:07.717Z,1.07
2024-04-18T15:45:41.243Z,1.25
2024-04-18T15:48:27.760Z,1.48
2024-04-18T15:50:57.354Z,1.00
2024-04-18T15:53:30.653Z,0.92
2024-04-18T15:56:09.406Z,1.08
2024-04-18T15:58:55.756Z,1.06
2024-04-18T16:01:23.679Z,1.09
2024-04-18T16:04:09.672Z,0.80
2024-04-18T16:06:58.459Z,1.05
2024-04-18T16:09:44.619Z,0.86
2024-04-18T16:12:23.601Z,1.07
2024-04-18T16:15:06.025Z,0.96
2024-04-18T16:17:35.992Z,1.35
2024-04-18T16:20:13.883Z,1.11
2024-04-18T16:22:46.609Z,1.24
2024-04-18T16:25:39.213Z,1.41
2024-04-18T16:28:10.830Z,2.33
2024-04-18T16:31:01.531Z,2.23
2024-04-18T16:33:28.881Z,1.69
2024-04-18T16:35:56.026Z,1.24
2024-04-18T16:38:28.786Z,1.51
2024-04-18T16:40:56.021Z,1.59
2024-04-18T16:43:36.317Z,1.33
2024-04-18T16:46:08.399Z,1.50
2024-04-18T16:48:40.048Z,1.27
2024-04-18T16:51:12.199Z,1.31
2024-04-18T16:53:55.832Z,1.67
2024-04-18T16:56:25.730Z,1.37
2024-04-18T16:58:56.325Z,1.54
2024-04-18T17:01:23.669Z,2.31
2024-04-18T17:03:53.501Z,1.89
2024-04-18T17:06:45.327Z,1.49
2024-04-18T17:09:18.593Z,1.43
2024-04-18T17:11:46.223Z,1.43
2024-04-18T17:14:34.369Z,1.15
2024-04-18T17:17:01.795Z,1.17
2024-04-18T17:19:49.059Z,1.59
2024-04-18T17:22:20.418Z,1.28
2024-04-18T17:24:47.646Z,1.42
2024-04-18T17:27:14.948Z,1.83
2024-04-18T17:29:45.368Z,1.61
2024-04-18T17:32:14.820Z,1.62
2024-04-18T17:34:44.395Z,2.07
2024-04-18T17:37:13.830Z,1.84
2024-04-18T17:39:53.574Z,1.69
2024-04-18T17:42:24.249Z,1.23
2024-04-18T17:44:57.192Z,1.48
2024-04-18T17:47:29.990Z,1.56
2024-04-18T17:50:01.014Z,1.85
2024-04-18T17:52:32.804Z,1.87
2024-04-18T17:55:02.729Z,1.16
2024-04-18T17:57:32.527Z,2.47
2024-04-18T18:00:20.309Z,1.42
2024-04-18T18:02:53.478Z,1.29
2024-04-18T18:05:37.380Z,1.59
2024-04-18T18:08:25.152Z,1.38
2024-04-18T18:10:53.353Z,1.31
2024-04-18T18:13:25.649Z,1.76
2024-04-18T18:15:55.207Z,1.35
2024-04-18T18:18:26.883Z,1.45
2024-04-18T18:20:54.205Z,1.83
2024-04-18T18:23:30.099Z,1.77
2024-04-18T18:25:57.307Z,1.61
2024-04-18T18:28:26.922Z,1.63
2024-04-18T18:31:02.839Z,1.66
2024-04-18T18:33:30.152Z,2.20
2024-04-18T18:35:59.791Z,2.47
2024-04-18T18:38:29.496Z,2.79
2024-04-18T18:41:01.094Z,2.11
2024-04-18T18:43:30.638Z,2.04
2024-04-18T18:45:57.742Z,2.26
2024-04-18T18:48:25.125Z,1.54
2024-04-18T18:51:07.318Z,1.72
2024-04-18T18:53:34.689Z,1.69
2024-04-18T18:56:04.456Z,1.67
2024-04-18T18:58:55.068Z,2.24
2024-04-18T19:01:25.070Z,1.84
2024-04-18T19:04:17.755Z,1.63
2024-04-18T19:06:49.412Z,1.72
2024-04-18T19:09:17.015Z,1.73
2024-04-18T19:11:44.457Z,1.65
2024-04-18T19:14:14.067Z,1.33
2024-04-18T19:17:03.314Z,1.89
2024-04-18T19:19:35.313Z,1.66
2024-04-18T19:22:05.131Z,1.85
2024-04-18T19:24:32.429Z,1.93
2024-04-18T19:27:02.543Z,1.63
2024-04-18T19:29:39.748Z,2.29
2024-04-18T19:32:17.115Z,1.57
2024-04-18T19:34:44.377Z,1.69
2024-04-18T19:37:11.601Z,1.76
2024-04-18T19:39:41.086Z,1.54
2024-04-18T19:42:10.919Z,1.45
2024-04-18T19:44:40.366Z,1.36
2024-04-18T19:47:09.655Z,1.76
2024-04-18T19:49:39.342Z,1.76
2024-04-18T19:52:13.513Z,1.88
2024-04-18T19:54:45.234Z,1.87
2024-04-18T19:57:14.852Z,1.80
2024-04-18T19:59:44.303Z,1.77
2024-04-18T20:02:16.181Z,2.02
2024-04-18T20:04:45.532Z,2.20
2024-04-18T20:07:12.733Z,1.78
2024-04-18T20:09:39.951Z,1.59
2024-04-18T20:12:11.656Z,1.79
2024-04-18T20:15:01.134Z,1.87
2024-04-18T20:17:30.512Z,2.17
2024-04-18T20:19:57.750Z,1.78
2024-04-18T20:22:28.573Z,1.85
2024-04-18T20:25:00.288Z,2.24
2024-04-18T20:27:40.168Z,2.59
2024-04-18T20:30:12.886Z,2.63
2024-04-18T20:33:03.128Z,2.95
2024-04-18T20:35:32.704Z,3.01
2024-04-18T20:38:04.312Z,3.07
2024-04-18T20:40:31.450Z,2.94
2024-04-18T20:43:03.196Z,2.53
2024-04-18T20:45:35.658Z,3.25
2024-04-18T20:48:07.955Z,2.97
2024-04-18T20:50:37.635Z,3.19
2024-04-18T20:53:07.279Z,2.68
2024-04-18T20:55:36.884Z,2.63
2024-04-18T20:58:06.269Z,2.74
2024-04-18T21:00:35.858Z,2.55
2024-04-18T21:03:03.049Z,2.73
2024-04-18T21:05:32.712Z,2.92
2024-04-18T21:07:59.777Z,2.37
2024-04-18T21:10:26.904Z,2.24
2024-04-18T21:12:56.564Z,2.35
2024-04-18T21:15:26.207Z,2.30
2024-04-18T21:17:55.088Z,2.25
2024-04-18T21:20:25.334Z,1.80
2024-04-18T21:22:54.921Z,1.88
2024-04-18T21:25:26.261Z,2.46
2024-04-18T21:27:53.397Z,1.84
2024-04-18T21:30:22.961Z,1.73
2024-04-18T21:32:57.168Z,1.84
2024-04-18T21:35:33.330Z,1.83
2024-04-18T21:38:05.133Z,1.93
2024-04-18T21:40:32.345Z,2.38
2024-04-18T21:43:04.903Z,2.35
2024-04-18T21:45:35.427Z,2.72
2024-04-18T21:48:02.785Z,2.18
2024-04-18T21:50:32.140Z,2.10
2024-04-18T21:53:06.372Z,1.89
2024-04-18T21:55:40.933Z,1.85
2024-04-18T21:58:13.165Z,2.40
2024-04-18T22:00:42.800Z,2.08
2024-04-18T22:03:12.374Z,2.19
2024-04-18T22:05:42.367Z,2.05
2024-04-18T22:08:10.375Z,2.53
2024-04-18T22:10:37.486Z,2.47
2024-04-18T22:13:04.654Z,2.49
2024-04-18T22:15:34.939Z,2.33
2024-04-18T22:18:02.410Z,2.47
2024-04-18T22:20:32.072Z,2.63
2024-04-18T22:23:19.172Z,2.79
2024-04-18T22:25:46.390Z,2.79
2024-04-18T22:28:15.878Z,2.39
2024-04-18T22:30:46.929Z,2.72
2024-04-18T22:33:17.196Z,2.56
2024-04-18T22:35:46.482Z,3.15
2024-04-18T22:38:13.751Z,2.59
2024-04-18T22:40:43.315Z,3.01
2024-04-18T22:43:10.745Z,2.67
2024-04-18T22:45:40.482Z,2.82
2024-04-18T22:48:08.100Z,2.57
2024-04-18T22:50:36.275Z,2.49
2024-04-18T22:53:03.595Z,2.97
2024-04-18T22:55:33.095Z,2.84
2024-04-18T22:58:05.071Z,3.39
2024-04-18T23:00:35.430Z,2.96
2024-04-18T23:03:04.814Z,3.37
2024-04-18T23:05:42.337Z,3.32
2024-04-18T23:08:09.486Z,3.65
2024-04-18T23:10:36.635Z,3.31
2024-04-18T23:13:10.842Z,3.76
2024-04-18T23:15:47.392Z,3.80
2024-04-18T23:18:21.448Z,3.40
2024-04-18T23:20:51.756Z,3.19
2024-04-18T23:23:21.377Z,4.01
2024-04-18T23:25:50.782Z,3.76
2024-04-18T23:28:17.931Z,4.23
2024-04-18T23:30:47.337Z,4.37
2024-04-18T23:33:16.842Z,4.47
2024-04-18T23:35:51.468Z,4.81
2024-04-18T23:38:21.059Z,4.50
2024-04-18T23:40:48.367Z,4.57
2024-04-18T23:43:21.190Z,4.69
2024-04-18T23:45:51.034Z,5.19
2024-04-18T23:48:20.428Z,4.73
2024-04-18T23:50:50.012Z,4.82
2024-04-18T23:53:19.609Z,5.35
2024-04-18T23:55:49.072Z,5.55
2024-04-18T23:58:16.253Z,5.01
